createdAt,value
2019-03-27T00:00:29.796Z,877.53
2019-03-27T00:01:29.982Z,877.53
2019-03-27T00:02:29.739Z,877.55
2019-03-27T00:03:29.719Z,877.55
2019-03-27T00:04:29.709Z,877.55
2019-03-27T00:05:29.710Z,877.59
2019-03-27T00:06:29.950Z,877.61
2019-03-27T00:07:29.967Z,877.58
2019-03-27T00:08:29.674Z,877.60
2019-03-27T00:09:29.927Z,877.57
2019-03-27T00:10:29.647Z,877.57
2019-03-27T00:11:29.869Z,877.58
2019-03-27T00:12:29.883Z,877.57
2019-03-27T00:13:29.630Z,877.55
2019-03-27T00:14:29.897Z,877.58
2019-03-27T00:15:29.896Z,877.63
2019-03-27T00:17:29.837Z,877.57
2019-03-27T00:18:29.608Z,877.61
2019-03-27T00:20:29.810Z,877.55
2019-03-27T00:21:29.529Z,877.56
2019-03-27T00:22:29.781Z,877.55
2019-03-27T00:23:29.554Z,877.59
2019-03-27T00:24:29.531Z,877.56
2019-03-27T00:25:29.746Z,877.55
2019-03-27T00:26:29.515Z,877.54
2019-03-27T00:27:29.707Z,877.57
2019-03-27T00:28:29.747Z,877.57
2019-03-27T00:29:29.740Z,877.61
2019-03-27T00:33:29.439Z,877.61
2019-03-27T00:34:29.679Z,877.63
2019-03-27T00:35:29.646Z,877.66
2019-03-27T00:36:29.397Z,877.61
2019-03-27T00:37:29.362Z,877.56
2019-03-27T00:38:29.339Z,877.54
2019-03-27T00:39:29.337Z,877.52
2019-03-27T00:40:29.335Z,877.53
2019-03-27T00:41:29.567Z,877.53
2019-03-27T00:42:29.333Z,877.49
2019-03-27T00:43:29.330Z,877.51
2019-03-27T00:44:29.530Z,877.50
2019-03-27T00:45:29.309Z,877.47
2019-03-27T00:46:29.560Z,877.46
2019-03-27T00:47:29.521Z,877.50
2019-03-27T00:48:29.509Z,877.53
2019-03-27T00:49:29.226Z,877.53
2019-03-27T00:50:29.210Z,877.53
2019-03-27T00:51:29.434Z,877.56
2019-03-27T00:52:29.239Z,877.58
2019-03-27T00:53:29.446Z,877.51
2019-03-27T00:54:29.180Z,877.52
2019-03-27T00:55:29.197Z,877.54
2019-03-27T00:56:29.147Z,877.57
2019-03-27T00:57:29.135Z,877.50
2019-03-27T00:58:29.125Z,877.55
2019-03-27T00:59:29.385Z,877.52
2019-03-27T01:00:29.406Z,877.53
2019-03-27T01:01:29.343Z,877.51
2019-03-27T01:02:30.013Z,877.53
2019-03-27T01:03:29.306Z,877.49
2019-03-27T01:04:29.303Z,877.47
2019-03-27T01:05:29.321Z,877.45
2019-03-27T01:06:29.093Z,877.45
2019-03-27T01:07:29.063Z,877.47
2019-03-27T01:08:29.021Z,877.44
2019-03-27T01:09:29.253Z,877.48
2019-03-27T01:10:29.376Z,877.48
2019-03-27T01:11:29.272Z,877.45
2019-03-27T01:12:28.986Z,877.49
2019-03-27T01:13:29.256Z,877.43
2019-03-27T01:14:28.953Z,877.51
2019-03-27T01:15:39.172Z,877.51
2019-03-27T01:16:29.210Z,877.48
2019-03-27T01:17:29.183Z,877.49
2019-03-27T01:18:29.172Z,877.44
2019-03-27T01:19:29.169Z,877.44
2019-03-27T01:21:28.893Z,877.40
2019-03-27T01:22:28.916Z,877.38
2019-03-27T01:23:29.156Z,877.32
2019-03-27T01:26:28.839Z,877.36
2019-03-27T01:27:28.847Z,877.41
2019-03-27T01:30:01.445Z,877.43
2019-03-27T01:31:00.844Z,877.36
2019-03-27T01:32:54.458Z,877.28
2019-03-27T01:33:54.271Z,877.32
2019-03-27T01:35:47.929Z,877.30
2019-03-27T01:36:47.830Z,877.34
2019-03-27T01:38:40.917Z,877.36
2019-03-27T01:39:41.134Z,877.35
2019-03-27T01:41:34.745Z,877.33
2019-03-27T01:42:34.473Z,877.32
2019-03-27T01:44:27.921Z,877.27
2019-03-27T01:45:27.571Z,877.26
2019-03-27T01:47:21.399Z,877.27
2019-03-27T01:48:21.202Z,877.27
2019-03-27T01:50:14.299Z,877.24
2019-03-27T01:51:14.286Z,877.27
2019-03-27T01:53:08.088Z,877.28
2019-03-27T01:54:07.610Z,877.29
2019-03-27T01:56:01.049Z,877.26
2019-03-27T01:57:01.150Z,877.27
2019-03-27T02:00:26.590Z,877.22
2019-03-27T02:01:26.297Z,877.21
2019-03-27T02:03:20.527Z,877.23
2019-03-27T02:04:19.678Z,877.21
2019-03-27T02:06:13.237Z,877.20
2019-03-27T02:07:13.222Z,877.18
2019-03-27T02:09:06.571Z,877.21
2019-03-27T02:10:06.550Z,877.22
2019-03-27T02:11:59.970Z,877.19
2019-03-27T02:13:00.141Z,877.21
2019-03-27T02:13:59.683Z,877.21
2019-03-27T02:14:59.635Z,877.21
2019-03-27T02:16:06.903Z,877.21
2019-03-27T02:16:59.646Z,877.25
2019-03-27T02:17:59.855Z,877.25
2019-03-27T02:18:59.835Z,877.23
2019-03-27T02:19:59.890Z,877.25
2019-03-27T02:20:59.924Z,877.24
2019-03-27T02:21:59.571Z,877.22
2019-03-27T02:22:59.866Z,877.19
2019-03-27T02:23:59.586Z,877.17
2019-03-27T02:24:59.614Z,877.17
2019-03-27T02:25:59.783Z,877.18
2019-03-27T02:26:59.519Z,877.19
2019-03-27T02:27:59.760Z,877.14
2019-03-27T02:28:59.771Z,877.17
2019-03-27T02:29:59.789Z,877.16
2019-03-27T02:30:59.761Z,877.14
2019-03-27T02:31:59.736Z,877.16
2019-03-27T02:32:59.460Z,877.13
2019-03-27T02:33:59.443Z,877.12
2019-03-27T02:34:59.695Z,877.09
2019-03-27T02:35:59.465Z,877.08
2019-03-27T02:36:59.454Z,877.04
2019-03-27T02:37:59.636Z,877.05
2019-03-27T02:38:59.642Z,877.03
2019-03-27T02:39:59.410Z,877.02
2019-03-27T02:40:59.639Z,877.02
2019-03-27T02:41:59.515Z,877.04
2019-03-27T02:42:59.375Z,876.98
2019-03-27T02:43:59.603Z,876.99
2019-03-27T02:44:59.328Z,876.99
2019-03-27T02:45:59.316Z,876.98
2019-03-27T02:46:59.564Z,876.96
2019-03-27T02:47:59.624Z,876.96
2019-03-27T02:48:59.544Z,876.98
2019-03-27T02:49:59.510Z,876.96
2019-03-27T02:50:59.549Z,876.94
2019-03-27T02:51:59.494Z,876.92
2019-03-27T02:52:59.268Z,876.91
2019-03-27T02:53:59.242Z,876.90
2019-03-27T02:54:59.511Z,876.91
2019-03-27T02:55:59.501Z,876.92
2019-03-27T02:56:59.238Z,876.92
2019-03-27T02:57:59.439Z,876.88
2019-03-27T02:58:59.195Z,876.87
2019-03-27T02:59:59.172Z,876.86
2019-03-27T03:00:59.205Z,876.84
2019-03-27T03:01:59.430Z,876.83
2019-03-27T03:02:59.141Z,876.85
2019-03-27T03:03:59.386Z,876.85
2019-03-27T03:04:59.355Z,876.82
2019-03-27T03:05:59.104Z,876.83
2019-03-27T03:06:59.099Z,876.85
2019-03-27T03:07:59.127Z,876.84
2019-03-27T03:08:59.086Z,876.81
2019-03-27T03:09:59.121Z,876.85
2019-03-27T03:10:59.299Z,876.82
2019-03-27T03:11:59.330Z,876.84
2019-03-27T03:12:59.333Z,876.79
2019-03-27T03:13:59.063Z,876.81
2019-03-27T03:14:59.300Z,876.81
2019-03-27T03:15:59.291Z,876.79
2019-03-27T03:16:59.275Z,876.77
2019-03-27T03:17:59.258Z,876.68
2019-03-27T03:18:58.970Z,876.74
2019-03-27T03:19:59.004Z,876.73
2019-03-27T03:20:58.995Z,876.66
2019-03-27T03:21:58.957Z,876.66
2019-03-27T03:22:59.178Z,876.70
2019-03-27T03:23:58.926Z,876.66
2019-03-27T03:24:59.151Z,876.66
2019-03-27T03:25:58.953Z,876.65
2019-03-27T03:26:58.909Z,876.65
2019-03-27T03:27:59.220Z,876.63
2019-03-27T03:28:59.165Z,876.63
2019-03-27T03:29:59.143Z,876.63
2019-03-27T03:30:59.120Z,876.62
2019-03-27T03:31:59.105Z,876.57
2019-03-27T03:32:59.105Z,876.62
2019-03-27T03:33:58.863Z,876.61
2019-03-27T03:34:59.103Z,876.57
2019-03-27T03:35:58.850Z,876.54
2019-03-27T03:36:59.075Z,876.51
2019-03-27T03:37:59.028Z,876.52
2019-03-27T03:38:58.776Z,876.50
2019-03-27T03:39:59.018Z,876.46
2019-03-27T03:40:59.022Z,876.46
2019-03-27T03:43:31.153Z,876.46
2019-03-27T03:44:31.081Z,876.42
2019-03-27T03:46:24.441Z,876.42
2019-03-27T03:47:24.165Z,876.41
2019-03-27T03:49:17.828Z,876.40
2019-03-27T03:50:17.514Z,876.38
2019-03-27T03:52:13.969Z,876.36
2019-03-27T03:53:11.128Z,876.31
2019-03-27T03:55:04.451Z,876.35
2019-03-27T03:56:04.436Z,876.30
2019-03-27T03:57:57.795Z,876.28
2019-03-27T03:58:57.801Z,876.18
2019-03-27T04:00:51.437Z,876.22
2019-03-27T04:01:51.130Z,876.15
2019-03-27T04:04:44.415Z,876.14
2019-03-27T04:06:37.822Z,876.16
2019-03-27T04:07:37.510Z,876.11
2019-03-27T04:09:31.746Z,876.07
2019-03-27T04:10:31.145Z,876.02
2019-03-27T04:12:24.377Z,876.07
2019-03-27T04:13:24.183Z,876.10
2019-03-27T04:15:17.897Z,876.09
2019-03-27T04:16:17.177Z,876.11
2019-03-27T04:18:10.614Z,876.07
2019-03-27T04:19:10.374Z,876.08
2019-03-27T04:21:03.766Z,876.07
2019-03-27T04:22:03.734Z,876.03
2019-03-27T04:23:57.550Z,876.02
2019-03-27T04:24:57.305Z,875.99
2019-03-27T04:26:53.752Z,875.97
2019-03-27T04:27:50.676Z,875.93
2019-03-27T04:29:44.291Z,875.92
2019-03-27T04:30:44.007Z,875.90
2019-03-27T04:32:37.129Z,875.92
2019-03-27T04:33:37.309Z,875.93
2019-03-27T04:35:30.718Z,875.88
2019-03-27T04:36:30.469Z,875.84
2019-03-27T04:38:25.079Z,875.87
2019-03-27T04:39:25.000Z,875.85
2019-03-27T04:41:18.344Z,875.86
2019-03-27T04:42:18.347Z,875.85
2019-03-27T04:45:11.657Z,875.82
2019-03-27T04:47:05.219Z,875.72
2019-03-27T04:48:04.807Z,875.74
2019-03-27T04:49:58.616Z,875.68
2019-03-27T04:50:58.825Z,875.64
2019-03-27T04:52:52.136Z,875.64
2019-03-27T04:53:52.163Z,875.69
2019-03-27T04:55:45.633Z,875.66
2019-03-27T04:56:45.535Z,875.67
2019-03-27T04:58:39.176Z,875.60
2019-03-27T04:59:38.603Z,875.57
2019-03-27T05:01:32.185Z,875.61
2019-03-27T05:02:32.190Z,875.61
2019-03-27T05:04:25.815Z,875.55
2019-03-27T05:05:25.491Z,875.58
2019-03-27T05:07:18.908Z,875.46
2019-03-27T05:08:18.928Z,875.46
2019-03-27T05:10:12.258Z,875.45
2019-03-27T05:11:12.271Z,875.41
2019-03-27T05:13:05.354Z,875.38
2019-03-27T05:14:05.306Z,875.36
2019-03-27T05:15:59.149Z,875.32
2019-03-27T05:16:58.653Z,875.30
2019-03-27T05:18:52.370Z,875.34
2019-03-27T05:19:52.374Z,875.35
2019-03-27T05:21:45.685Z,875.26
2019-03-27T05:22:45.488Z,875.27
2019-03-27T05:24:39.083Z,875.18
2019-03-27T05:25:38.806Z,875.20
2019-03-27T05:27:32.643Z,875.14
2019-03-27T05:28:32.437Z,875.17
2019-03-27T05:30:25.516Z,875.12
2019-03-27T05:31:25.506Z,875.13
2019-03-27T05:33:19.031Z,875.09
2019-03-27T05:34:18.833Z,875.16
2019-03-27T05:36:12.441Z,875.07
2019-03-27T05:37:12.143Z,875.05
2019-03-27T05:39:05.935Z,874.98
2019-03-27T05:40:05.722Z,875.02
2019-03-27T05:43:00.909Z,874.95
2019-03-27T05:44:52.981Z,874.93
2019-03-27T05:45:52.410Z,874.90
2019-03-27T05:47:58.561Z,874.84
2019-03-27T05:48:45.493Z,874.85
2019-03-27T05:50:39.375Z,874.74
2019-03-27T05:51:38.829Z,874.77
2019-03-27T05:53:32.167Z,874.83
2019-03-27T05:54:32.422Z,874.80
2019-03-27T05:56:25.761Z,874.78
2019-03-27T05:57:25.521Z,874.77
2019-03-27T05:59:19.121Z,874.68
2019-03-27T06:00:18.880Z,874.68
2019-03-27T06:02:12.422Z,874.70
2019-03-27T06:03:12.437Z,874.67
2019-03-27T06:05:05.378Z,874.61
2019-03-27T06:06:05.101Z,874.57
2019-03-27T06:07:58.933Z,874.62
2019-03-27T06:08:58.664Z,874.56
2019-03-27T06:10:52.604Z,874.49
2019-03-27T06:11:51.743Z,874.46
2019-03-27T06:13:45.642Z,874.44
2019-03-27T06:14:45.115Z,874.45
2019-03-27T06:18:13.442Z,874.42
2019-03-27T06:19:09.985Z,874.37
2019-03-27T06:21:03.842Z,874.32
2019-03-27T06:22:03.320Z,874.28
2019-03-27T06:23:56.955Z,874.27
2019-03-27T06:24:56.932Z,874.24
2019-03-27T06:26:50.563Z,874.39
2019-03-27T06:27:50.310Z,874.23
2019-03-27T06:29:43.394Z,874.23
2019-03-27T06:30:43.344Z,874.24
2019-03-27T06:32:38.010Z,874.25
2019-03-27T06:33:36.957Z,874.28
2019-03-27T06:35:30.075Z,874.22
2019-03-27T06:36:30.252Z,874.22
2019-03-27T06:38:23.822Z,874.19
2019-03-27T06:39:23.380Z,874.21
2019-03-27T06:41:16.953Z,874.15
2019-03-27T06:42:16.960Z,874.15
2019-03-27T06:44:10.494Z,874.12
2019-03-27T06:45:10.027Z,874.12
2019-03-27T06:47:03.446Z,874.12
2019-03-27T06:48:03.399Z,874.12
2019-03-27T06:49:57.274Z,874.11
2019-03-27T06:50:56.973Z,874.05
2019-03-27T06:52:50.339Z,874.06
2019-03-27T06:53:50.100Z,874.05
2019-03-27T06:55:43.765Z,874.06
2019-03-27T06:56:43.628Z,873.99
2019-03-27T06:58:36.761Z,874.02
2019-03-27T07:01:30.940Z,873.98
2019-03-27T07:02:30.389Z,873.92
2019-03-27T07:04:23.707Z,873.90
2019-03-27T07:05:23.483Z,873.84
2019-03-27T07:07:16.549Z,873.88
2019-03-27T07:08:16.599Z,873.82
2019-03-27T07:10:09.713Z,873.85
2019-03-27T07:11:09.716Z,873.79
2019-03-27T07:13:03.822Z,873.75
2019-03-27T07:14:03.039Z,873.76
2019-03-27T07:15:56.614Z,873.80
2019-03-27T07:16:56.611Z,873.75
2019-03-27T07:18:50.222Z,873.78
2019-03-27T07:19:49.908Z,873.77
2019-03-27T07:21:43.063Z,873.77
2019-03-27T07:22:43.047Z,873.78
2019-03-27T07:24:36.926Z,873.73
2019-03-27T07:25:36.610Z,873.74
2019-03-27T07:27:29.963Z,873.74
2019-03-27T07:28:29.759Z,873.72
2019-03-27T07:30:24.673Z,873.71
2019-03-27T07:31:24.497Z,873.70
2019-03-27T07:33:17.625Z,873.69
2019-03-27T07:34:17.875Z,873.72
2019-03-27T07:36:11.176Z,873.71
2019-03-27T07:37:10.958Z,873.71
2019-03-27T07:39:10.992Z,873.69
2019-03-27T07:40:04.532Z,873.68
2019-03-27T07:41:57.884Z,873.70
2019-03-27T07:42:57.646Z,873.73
2019-03-27T07:44:51.037Z,873.70
2019-03-27T07:45:51.024Z,873.72
2019-03-27T07:47:47.957Z,873.69
2019-03-27T07:48:53.754Z,873.69
2019-03-27T07:50:38.070Z,873.67
2019-03-27T07:51:38.176Z,873.67
2019-03-27T07:53:32.120Z,873.69
2019-03-27T07:54:31.299Z,873.68
2019-03-27T07:56:24.607Z,873.66
2019-03-27T07:57:24.619Z,873.67
2019-03-27T07:59:18.537Z,873.71
2019-03-27T08:00:17.934Z,873.63
2019-03-27T08:02:11.064Z,873.69
2019-03-27T08:03:11.038Z,873.69
2019-03-27T08:05:04.645Z,873.67
2019-03-27T08:06:04.654Z,873.65
2019-03-27T08:07:57.281Z,873.61
2019-03-27T08:08:57.252Z,873.60
2019-03-27T08:10:50.811Z,873.60
2019-03-27T08:11:50.589Z,873.59
2019-03-27T08:13:44.203Z,873.54
2019-03-27T08:14:43.886Z,873.50
2019-03-27T08:16:37.441Z,873.50
2019-03-27T08:17:37.477Z,873.50
2019-03-27T08:19:30.858Z,873.46
2019-03-27T08:20:31.042Z,873.50
2019-03-27T08:22:24.115Z,873.47
2019-03-27T08:23:23.976Z,873.42
2019-03-27T08:25:17.542Z,873.47
2019-03-27T08:26:17.553Z,873.47
2019-03-27T08:28:10.828Z,873.46
2019-03-27T08:29:10.842Z,873.44
2019-03-27T08:31:04.339Z,873.43
2019-03-27T08:32:03.971Z,873.39
2019-03-27T08:33:57.826Z,873.45
2019-03-27T08:36:13.569Z,873.37
2019-03-27T08:37:11.717Z,873.34
2019-03-27T08:39:05.253Z,873.33
2019-03-27T08:40:05.294Z,873.31
2019-03-27T08:41:59.262Z,873.29
2019-03-27T08:42:58.362Z,873.31
2019-03-27T08:44:52.557Z,873.32
2019-03-27T08:45:51.715Z,873.31
2019-03-27T08:47:45.093Z,873.30
2019-03-27T08:48:45.062Z,873.30
2019-03-27T08:50:38.856Z,873.28
2019-03-27T08:51:38.646Z,873.28
2019-03-27T08:53:32.115Z,873.29
2019-03-27T08:54:31.722Z,873.26
2019-03-27T08:56:25.307Z,873.26
2019-03-27T08:57:25.286Z,873.26
2019-03-27T08:59:18.443Z,873.26
2019-03-27T09:00:21.238Z,873.31
2019-03-27T09:02:12.307Z,873.33
2019-03-27T09:03:12.005Z,873.32
2019-03-27T09:05:05.340Z,873.28
2019-03-27T09:06:05.387Z,873.30
2019-03-27T09:07:58.672Z,873.24
2019-03-27T09:08:58.438Z,873.24
2019-03-27T09:10:52.114Z,873.23
2019-03-27T09:11:51.807Z,873.23
2019-03-27T09:13:45.567Z,873.23
2019-03-27T09:14:45.360Z,873.19
2019-03-27T09:16:38.735Z,873.20
2019-03-27T09:17:38.477Z,873.24
2019-03-27T09:19:35.966Z,873.19
2019-03-27T09:20:32.563Z,873.17
2019-03-27T09:22:26.148Z,873.17
2019-03-27T09:23:26.166Z,873.21
2019-03-27T09:25:19.517Z,873.17
2019-03-27T09:26:19.310Z,873.15
2019-03-27T09:28:12.869Z,873.16
2019-03-27T09:29:12.648Z,873.13
2019-03-27T09:31:06.209Z,873.11
2019-03-27T09:32:06.056Z,873.14
2019-03-27T09:34:00.804Z,873.10
2019-03-27T09:34:59.312Z,873.06
2019-03-27T09:36:52.960Z,873.07
2019-03-27T09:37:52.944Z,873.10
2019-03-27T09:39:46.332Z,873.11
2019-03-27T09:40:46.580Z,873.08
2019-03-27T09:42:40.257Z,873.06
2019-03-27T09:43:39.940Z,873.04
2019-03-27T09:45:33.324Z,873.03
2019-03-27T09:46:33.049Z,872.99
2019-03-27T09:48:26.765Z,873.00
2019-03-27T09:49:26.623Z,873.01
2019-03-27T09:51:20.088Z,872.99
2019-03-27T09:52:19.747Z,872.96
2019-03-27T09:53:19.747Z,872.98
2019-03-27T09:54:19.939Z,873.01
2019-03-27T09:55:19.718Z,872.96
2019-03-27T09:56:19.794Z,872.96
2019-03-27T09:57:19.940Z,872.91
2019-03-27T09:58:19.700Z,872.96
2019-03-27T09:59:19.929Z,872.99
2019-03-27T10:00:19.914Z,873.00
2019-03-27T10:01:19.910Z,872.97
2019-03-27T10:02:19.884Z,872.99
2019-03-27T10:03:19.916Z,872.94
2019-03-27T10:04:19.844Z,872.97
2019-03-27T10:05:19.877Z,872.98
2019-03-27T10:06:19.855Z,872.98
2019-03-27T10:07:19.617Z,872.94
2019-03-27T10:08:19.599Z,872.91
2019-03-27T10:09:19.618Z,872.92
2019-03-27T10:10:19.558Z,872.92
2019-03-27T10:11:19.806Z,872.94
2019-03-27T10:12:19.542Z,872.94
2019-03-27T10:13:19.822Z,872.93
2019-03-27T10:14:19.800Z,872.93
2019-03-27T10:15:19.512Z,872.96
2019-03-27T10:16:19.505Z,872.90
2019-03-27T10:17:20.634Z,872.93
2019-03-27T10:18:19.514Z,872.92
2019-03-27T10:19:19.785Z,872.93
2019-03-27T10:20:23.102Z,872.95
2019-03-27T10:21:20.781Z,872.94
2019-03-27T10:22:32.323Z,872.94
2019-03-27T10:23:41.635Z,872.91
2019-03-27T10:24:22.821Z,872.97
2019-03-27T10:25:36.204Z,872.95
2019-03-27T10:27:25.317Z,872.92
2019-03-27T10:28:20.250Z,872.94
2019-03-27T10:29:21.297Z,872.93
2019-03-27T10:30:25.801Z,872.92
2019-03-27T10:31:21.361Z,872.93
2019-03-27T10:32:19.532Z,872.90
2019-03-27T10:33:19.689Z,872.90
2019-03-27T10:34:19.807Z,872.90
2019-03-27T10:35:19.874Z,872.87
2019-03-27T10:36:22.217Z,872.95
2019-03-27T10:37:19.376Z,872.91
2019-03-27T10:38:19.320Z,872.92
2019-03-27T10:39:19.929Z,872.90
2019-03-27T10:40:19.559Z,872.93
2019-03-27T10:41:22.286Z,872.92
2019-03-27T10:42:19.548Z,872.93
2019-03-27T10:43:19.306Z,872.91
2019-03-27T10:45:19.588Z,872.90
2019-03-27T10:46:19.285Z,872.93
2019-03-27T10:48:24.582Z,872.90
2019-03-27T10:49:47.033Z,872.89
2019-03-27T10:52:25.795Z,872.88
2019-03-27T10:53:22.467Z,872.87
2019-03-27T10:55:19.196Z,872.86
2019-03-27T10:57:19.431Z,872.87
2019-03-27T10:58:19.400Z,872.89
2019-03-27T10:59:19.381Z,872.87
2019-03-27T11:00:19.367Z,872.89
2019-03-27T11:01:19.346Z,872.90
2019-03-27T11:02:19.380Z,872.90
2019-03-27T11:03:19.369Z,872.89
2019-03-27T11:04:19.076Z,872.88
2019-03-27T11:05:19.078Z,872.86
2019-03-27T11:06:19.097Z,872.87
2019-03-27T11:07:19.307Z,872.91
2019-03-27T11:08:19.086Z,872.87
2019-03-27T11:09:19.298Z,872.87
2019-03-27T11:10:19.060Z,872.89
2019-03-27T11:11:19.054Z,872.87
2019-03-27T11:12:19.271Z,872.85
2019-03-27T11:13:18.998Z,872.87
2019-03-27T11:14:19.251Z,872.89
2019-03-27T11:15:19.256Z,872.89
2019-03-27T11:16:19.004Z,872.88
2019-03-27T11:17:19.209Z,872.87
2019-03-27T11:18:19.193Z,872.87
2019-03-27T11:19:19.238Z,872.86
2019-03-27T11:20:30.197Z,872.85
2019-03-27T11:21:19.218Z,872.86
2019-03-27T11:22:18.909Z,872.86
2019-03-27T11:23:19.146Z,872.86
2019-03-27T11:24:18.948Z,872.86
2019-03-27T11:25:19.158Z,872.88
2019-03-27T11:26:18.874Z,872.87
2019-03-27T11:27:19.127Z,872.85
2019-03-27T11:28:19.182Z,872.87
2019-03-27T11:29:18.855Z,872.87
2019-03-27T11:30:18.973Z,872.84
2019-03-27T11:31:18.834Z,872.92
2019-03-27T11:33:19.050Z,872.83
2019-03-27T11:34:18.867Z,872.87
2019-03-27T11:35:19.054Z,872.85
2019-03-27T11:36:19.081Z,872.85
2019-03-27T11:37:18.840Z,872.91
2019-03-27T11:38:19.079Z,872.89
2019-03-27T11:39:19.201Z,872.93
2019-03-27T11:40:18.803Z,872.90
2019-03-27T11:41:19.054Z,872.91
2019-03-27T11:42:23.928Z,872.88
2019-03-27T11:43:19.020Z,872.88
2019-03-27T11:44:19.024Z,872.92
2019-03-27T11:45:18.993Z,872.92
2019-03-27T11:46:18.767Z,872.93
2019-03-27T11:47:18.974Z,872.91
2019-03-27T11:48:18.685Z,872.91
2019-03-27T11:49:18.957Z,872.90
2019-03-27T11:50:18.979Z,872.94
2019-03-27T11:51:18.897Z,872.92
2019-03-27T11:52:18.975Z,872.93
2019-03-27T11:53:19.368Z,872.95
2019-03-27T11:54:18.924Z,872.92
2019-03-27T11:55:18.878Z,872.92
2019-03-27T11:56:18.868Z,872.94
2019-03-27T11:57:18.641Z,872.91
2019-03-27T11:58:18.635Z,872.91
2019-03-27T11:59:18.846Z,872.90
2019-03-27T12:00:18.678Z,872.97
2019-03-27T12:01:19.366Z,872.94
2019-03-27T12:02:18.560Z,872.96
2019-03-27T12:03:18.602Z,872.96
2019-03-27T12:04:18.818Z,872.91
2019-03-27T12:05:18.801Z,872.93
2019-03-27T12:06:18.805Z,872.93
2019-03-27T12:07:18.561Z,872.93
2019-03-27T12:08:19.072Z,872.92
2019-03-27T12:09:18.544Z,872.92
2019-03-27T12:10:18.481Z,872.93
2019-03-27T12:11:18.515Z,872.91
2019-03-27T12:12:18.739Z,872.93
2019-03-27T12:13:18.494Z,872.94
2019-03-27T12:14:18.524Z,872.97
2019-03-27T12:15:18.571Z,872.92
2019-03-27T12:16:18.672Z,872.95
2019-03-27T12:17:18.686Z,872.95
2019-03-27T12:18:18.460Z,872.94
2019-03-27T12:19:18.705Z,872.94
2019-03-27T12:20:18.629Z,872.94
2019-03-27T12:21:18.393Z,872.94
2019-03-27T12:22:18.392Z,872.94
2019-03-27T12:23:18.422Z,872.93
2019-03-27T12:24:18.598Z,872.93
2019-03-27T12:25:18.615Z,872.94
2019-03-27T12:26:19.350Z,872.91
2019-03-27T12:27:18.568Z,872.90
2019-03-27T12:28:18.569Z,872.91
2019-03-27T12:29:18.433Z,872.88
2019-03-27T12:30:18.549Z,872.90
2019-03-27T12:31:25.194Z,872.92
2019-03-27T12:32:18.594Z,872.91
2019-03-27T12:33:18.323Z,872.88
2019-03-27T12:34:18.535Z,872.91
2019-03-27T12:35:18.526Z,872.91
2019-03-27T12:36:18.518Z,872.90
2019-03-27T12:37:18.301Z,872.85
2019-03-27T12:38:18.493Z,872.89
2019-03-27T12:39:18.234Z,872.84
2019-03-27T12:41:18.510Z,872.84
2019-03-27T12:42:18.449Z,872.90
2019-03-27T12:43:18.504Z,872.90
2019-03-27T12:44:18.453Z,872.90
2019-03-27T12:45:18.444Z,872.90
2019-03-27T12:46:18.221Z,872.86
2019-03-27T12:47:18.205Z,872.88
2019-03-27T12:48:18.434Z,872.88
2019-03-27T12:49:18.150Z,872.92
2019-03-27T12:50:18.466Z,872.91
2019-03-27T12:51:18.132Z,872.90
2019-03-27T12:52:18.165Z,872.91
2019-03-27T12:53:18.141Z,872.93
2019-03-27T12:54:18.345Z,872.92
2019-03-27T12:55:18.334Z,872.98
2019-03-27T12:56:18.329Z,872.96
2019-03-27T12:57:18.312Z,872.95
2019-03-27T12:58:18.093Z,872.98
2019-03-27T12:59:18.075Z,873.03
2019-03-27T13:00:18.330Z,873.03
2019-03-27T13:01:18.044Z,873.02
2019-03-27T13:02:18.305Z,873.04
2019-03-27T13:03:18.025Z,873.04
2019-03-27T13:04:18.030Z,873.03
2019-03-27T13:05:18.249Z,873.04
2019-03-27T13:06:18.317Z,873.07
2019-03-27T13:07:19.961Z,873.05
2019-03-27T13:08:18.302Z,873.05
2019-03-27T13:09:18.242Z,873.07
2019-03-27T13:10:18.013Z,873.08
2019-03-27T13:11:18.008Z,873.12
2019-03-27T13:12:18.226Z,873.10
2019-03-27T13:13:18.233Z,873.09
2019-03-27T13:14:17.933Z,873.10
2019-03-27T13:15:18.348Z,873.11
2019-03-27T13:16:19.291Z,873.06
2019-03-27T13:17:18.177Z,873.09
2019-03-27T13:18:17.949Z,873.09
2019-03-27T13:19:18.176Z,873.11
2019-03-27T13:20:18.114Z,873.05
2019-03-27T13:21:26.164Z,873.07
2019-03-27T13:22:17.867Z,873.07
2019-03-27T13:23:17.901Z,873.09
2019-03-27T13:24:17.862Z,873.08
2019-03-27T13:25:17.839Z,873.07
2019-03-27T13:27:18.085Z,873.08
2019-03-27T13:28:18.072Z,873.07
2019-03-27T13:29:17.824Z,873.10
2019-03-27T13:30:18.022Z,873.08
2019-03-27T13:31:17.780Z,873.10
2019-03-27T13:32:17.778Z,873.06
2019-03-27T13:33:18.713Z,873.03
2019-03-27T13:34:18.063Z,873.04
2019-03-27T13:35:18.032Z,873.02
2019-03-27T13:36:18.010Z,873.09
2019-03-27T13:37:17.745Z,873.06
2019-03-27T13:38:18.014Z,873.07
2019-03-27T13:39:17.714Z,873.07
2019-03-27T13:40:17.757Z,873.08
2019-03-27T13:41:17.741Z,873.11
2019-03-27T13:42:17.723Z,873.12
2019-03-27T13:43:17.791Z,873.12
2019-03-27T13:44:17.668Z,873.12
2019-03-27T13:45:17.950Z,873.11
2019-03-27T13:46:17.959Z,873.10
2019-03-27T13:47:17.907Z,873.09
2019-03-27T13:48:17.680Z,873.14
2019-03-27T13:49:17.918Z,873.08
2019-03-27T13:50:17.638Z,873.09
2019-03-27T13:51:17.647Z,873.10
2019-03-27T13:52:17.873Z,873.08
2019-03-27T13:53:17.595Z,873.12
2019-03-27T13:54:17.895Z,873.05
2019-03-27T13:55:17.872Z,873.01
2019-03-27T13:56:17.810Z,873.03
2019-03-27T13:57:17.827Z,873.04
2019-03-27T13:58:17.824Z,873.03
2019-03-27T13:59:17.860Z,872.99
2019-03-27T14:00:17.563Z,872.99
2019-03-27T14:01:17.535Z,872.96
2019-03-27T14:02:17.528Z,872.97
2019-03-27T14:03:17.821Z,872.93
2019-03-27T14:04:17.780Z,872.97
2019-03-27T14:05:17.766Z,872.94
2019-03-27T14:06:17.754Z,872.95
2019-03-27T14:07:17.482Z,872.95
2019-03-27T14:08:17.524Z,872.94
2019-03-27T14:09:17.747Z,872.99
2019-03-27T14:10:17.795Z,873.00
2019-03-27T14:12:17.697Z,873.00
2019-03-27T14:13:17.420Z,872.95
2019-03-27T14:14:17.689Z,872.95
2019-03-27T14:15:17.634Z,872.95
2019-03-27T14:16:17.634Z,872.94
2019-03-27T14:17:17.424Z,872.95
2019-03-27T14:18:17.379Z,872.93
2019-03-27T14:19:17.645Z,872.91
2019-03-27T14:20:17.360Z,872.90
2019-03-27T14:21:17.355Z,872.92
2019-03-27T14:22:17.586Z,872.94
2019-03-27T14:23:17.390Z,872.94
2019-03-27T14:24:17.328Z,872.94
2019-03-27T14:25:17.325Z,872.95
2019-03-27T14:26:17.606Z,872.94
2019-03-27T14:27:17.328Z,872.90
2019-03-27T14:28:17.553Z,872.87
2019-03-27T14:29:17.542Z,872.92
2019-03-27T14:30:17.740Z,872.91
2019-03-27T14:31:17.559Z,872.95
2019-03-27T14:32:17.297Z,872.92
2019-03-27T14:33:17.302Z,872.95
2019-03-27T14:34:17.516Z,872.93
2019-03-27T14:35:17.241Z,872.90
2019-03-27T14:36:17.257Z,872.92
2019-03-27T14:37:17.450Z,872.94
2019-03-27T14:38:17.250Z,872.88
2019-03-27T14:39:17.201Z,872.89
2019-03-27T14:40:17.225Z,872.90
2019-03-27T14:41:17.198Z,872.88
2019-03-27T14:42:17.678Z,872.92
2019-03-27T14:43:17.163Z,872.85
2019-03-27T14:44:17.425Z,872.86
2019-03-27T14:45:17.449Z,872.87
2019-03-27T14:46:17.432Z,872.87
2019-03-27T14:47:17.421Z,872.86
2019-03-27T14:48:17.376Z,872.85
2019-03-27T14:49:17.168Z,872.88
2019-03-27T14:50:17.144Z,872.84
2019-03-27T14:51:17.369Z,872.86
2019-03-27T14:52:17.334Z,872.88
2019-03-27T14:53:17.125Z,872.85
2019-03-27T14:54:17.303Z,872.91
2019-03-27T14:55:17.370Z,872.83
2019-03-27T14:56:17.290Z,872.86
2019-03-27T14:57:17.340Z,872.86
2019-03-27T14:58:17.052Z,872.84
2019-03-27T14:59:17.294Z,872.85
2019-03-27T15:00:17.282Z,872.82
2019-03-27T15:01:17.289Z,872.80
2019-03-27T15:02:17.042Z,872.76
2019-03-27T15:03:17.290Z,872.75